createdAt,value
2023-01-01T00:02:46.105Z,9.00
2023-01-01T00:07:47.581Z,6.72
2023-01-01T00:12:49.116Z,7.43
2023-01-01T00:17:50.554Z,5.60
2023-01-01T00:22:54.977Z,3.50
2023-01-01T00:27:57.510Z,2.05
2023-01-01T00:32:59.129Z,1.08
2023-01-01T00:38:00.865Z,1.65
2023-01-01T00:43:02.565Z,1.15
2023-01-01T00:48:04.328Z,0.98
2023-01-01T00:53:05.845Z,0.98
2023-01-01T00:58:07.422Z,1.00
2023-01-01T01:03:11.562Z,1.08
2023-01-01T01:08:13.218Z,2.40
2023-01-01T01:13:14.679Z,1.90
2023-01-01T01:18:16.597Z,1.65
2023-01-01T01:23:18.711Z,1.38
2023-01-01T01:28:20.284Z,1.38
2023-01-01T01:33:21.764Z,2.95
2023-01-01T01:38:23.415Z,2.75
2023-01-01T01:43:33.716Z,3.65
2023-01-01T01:48:42.460Z,4.03
2023-01-01T01:53:52.178Z,3.88
2023-01-01T01:58:53.702Z,4.75
2023-01-01T02:04:00.324Z,4.43
2023-01-01T02:09:04.870Z,4.90
2023-01-01T02:14:06.875Z,5.05
2023-01-01T02:19:23.584Z,5.32
2023-01-01T02:24:43.611Z,5.40
2023-01-01T02:30:12.032Z,5.07
2023-01-01T02:35:19.149Z,4.82
2023-01-01T02:40:23.685Z,5.07
2023-01-01T02:45:25.353Z,5.15
2023-01-01T02:50:29.274Z,4.55
2023-01-01T02:55:47.631Z,3.88
2023-01-01T03:00:50.854Z,4.05
2023-01-01T03:05:58.531Z,3.83
2023-01-01T03:11:09.174Z,4.82
2023-01-01T03:16:45.868Z,3.67
2023-01-01T03:21:57.910Z,3.47
2023-01-01T03:27:04.400Z,2.78
2023-01-01T03:32:09.105Z,2.88
2023-01-01T03:37:15.930Z,2.63
2023-01-01T03:42:51.994Z,2.90
2023-01-01T03:47:55.152Z,2.42
2023-01-01T03:53:10.308Z,1.88
2023-01-01T03:58:17.608Z,1.40
2023-01-01T04:03:27.220Z,1.08
2023-01-01T04:08:28.742Z,1.27
2023-01-01T04:13:30.231Z,1.52
2023-01-01T04:18:31.735Z,0.98
2023-01-01T04:23:33.312Z,1.13
2023-01-01T04:28:34.802Z,1.60
2023-01-01T04:33:36.412Z,0.80
2023-01-01T04:38:38.471Z,1.08
2023-01-01T04:43:39.936Z,0.40
2023-01-01T04:48:41.413Z,0.68
2023-01-01T04:53:43.096Z,0.50
2023-01-01T04:58:45.518Z,1.17
2023-01-01T05:03:48.279Z,0.75
2023-01-01T05:08:51.080Z,0.30
2023-01-01T05:13:54.573Z,0.85
2023-01-01T05:18:56.601Z,0.30
2023-01-01T05:24:00.825Z,0.57
2023-01-01T05:29:02.531Z,0.60
2023-01-01T05:39:07.288Z,0.28
2023-01-01T05:44:09.316Z,0.28
2023-01-01T05:49:11.900Z,0.70
2023-01-01T05:59:14.209Z,0.85
2023-01-01T06:04:15.883Z,0.47
2023-01-01T06:09:17.340Z,0.75
2023-01-01T06:14:18.934Z,0.52
2023-01-01T06:19:20.387Z,0.85
2023-01-01T06:24:23.015Z,0.60
2023-01-01T06:29:24.483Z,1.00
2023-01-01T06:34:25.931Z,0.30
2023-01-01T06:39:27.810Z,0.82
2023-01-01T06:44:29.311Z,1.38
2023-01-01T06:49:30.911Z,0.47
2023-01-01T06:54:32.445Z,0.50
2023-01-01T06:59:34.030Z,0.63
2023-01-01T07:04:35.567Z,0.38
2023-01-01T07:09:37.077Z,0.30
2023-01-01T07:14:38.664Z,0.40
2023-01-01T07:19:40.101Z,0.25
2023-01-01T07:24:41.575Z,0.30
2023-01-01T07:29:43.122Z,0.85
2023-01-01T07:34:50.270Z,0.30
2023-01-01T07:39:52.845Z,0.93
2023-01-01T07:44:54.368Z,0.20
2023-01-01T07:49:56.050Z,0.43
2023-01-01T07:54:57.705Z,0.28
2023-01-01T07:59:59.265Z,0.40
2023-01-01T08:05:00.755Z,0.63
2023-01-01T08:10:03.702Z,0.20
2023-01-01T08:15:06.116Z,1.38
2023-01-01T08:20:08.443Z,1.27
2023-01-01T08:25:09.848Z,0.60
2023-01-01T08:30:14.011Z,0.90
2023-01-01T08:35:15.618Z,0.65
2023-01-01T08:40:17.077Z,0.70
2023-01-01T08:45:18.698Z,0.68
2023-01-01T08:50:20.341Z,0.70
2023-01-01T08:55:21.911Z,0.35
2023-01-01T09:00:23.439Z,1.20
2023-01-01T09:05:25.047Z,0.60
2023-01-01T09:10:26.668Z,0.80
2023-01-01T09:15:28.685Z,0.85
2023-01-01T09:20:30.510Z,0.70
2023-01-01T09:25:32.639Z,0.60
2023-01-01T09:30:35.150Z,1.20
2023-01-01T09:35:36.629Z,1.02
2023-01-01T09:41:00.246Z,1.35
2023-01-01T09:46:07.873Z,0.60
2023-01-01T09:51:16.031Z,0.57
2023-01-01T09:56:21.904Z,1.13
2023-01-01T10:01:49.396Z,0.63
2023-01-01T10:07:29.093Z,0.98
2023-01-01T10:13:06.155Z,0.50
2023-01-01T10:18:17.933Z,0.77
2023-01-01T10:23:23.661Z,0.77
2023-01-01T10:33:36.485Z,0.63
2023-01-01T10:38:39.294Z,1.30
2023-01-01T10:43:40.723Z,1.05
2023-01-01T10:49:03.990Z,0.47
2023-01-01T10:54:31.119Z,0.70
2023-01-01T10:59:39.247Z,0.45
2023-01-01T11:04:40.883Z,0.55
2023-01-01T11:09:52.180Z,0.75
2023-01-01T11:15:05.701Z,0.45
2023-01-01T11:20:07.592Z,0.30
2023-01-01T11:25:21.467Z,0.30
2023-01-01T11:30:28.561Z,0.40
2023-01-01T11:35:51.128Z,0.55
2023-01-01T11:40:55.452Z,0.65
2023-01-01T11:45:58.709Z,0.32
2023-01-01T11:51:03.347Z,0.65
2023-01-01T11:56:13.051Z,0.35
2023-01-01T12:01:29.273Z,0.75
2023-01-01T12:06:37.774Z,0.57
2023-01-01T12:11:48.304Z,0.20
2023-01-01T12:16:55.120Z,0.63
2023-01-01T12:21:59.835Z,0.40
2023-01-01T12:27:16.457Z,0.40
2023-01-01T12:32:47.133Z,0.20
2023-01-01T12:38:16.566Z,0.28
2023-01-01T12:43:33.798Z,0.35
2023-01-01T12:48:35.237Z,0.50
2023-01-01T12:53:36.810Z,0.65
2023-01-01T12:58:43.794Z,0.90
2023-01-01T13:04:10.598Z,0.60
2023-01-01T13:09:21.630Z,0.98
2023-01-01T13:14:23.287Z,1.00
2023-01-01T13:19:32.768Z,0.90
2023-01-01T13:24:34.304Z,0.55
2023-01-01T13:29:43.957Z,0.70
2023-01-01T13:35:02.211Z,0.30
2023-01-01T13:40:31.101Z,0.75
2023-01-01T13:46:10.378Z,1.33
2023-01-01T13:56:12.628Z,0.50
2023-01-01T14:01:16.973Z,0.47
2023-01-01T14:06:42.024Z,0.32
2023-01-01T14:11:43.596Z,0.68
2023-01-01T14:16:45.183Z,0.57
2023-01-01T14:21:47.215Z,0.65
2023-01-01T14:26:49.674Z,0.50
2023-01-01T14:31:51.256Z,0.45
2023-01-01T14:36:55.637Z,0.70
2023-01-01T14:42:06.779Z,0.80
2023-01-01T14:47:25.501Z,0.80
2023-01-01T14:52:29.634Z,0.93
2023-01-01T14:57:37.244Z,0.60
2023-01-01T15:02:40.111Z,0.38
2023-01-01T15:07:41.733Z,0.57
2023-01-01T15:12:43.376Z,0.82
2023-01-01T15:17:47.749Z,0.80
2023-01-01T15:22:50.893Z,0.50
2023-01-01T15:27:54.968Z,0.90
2023-01-01T15:33:05.454Z,0.80
2023-01-01T15:38:24.062Z,0.80
2023-01-01T15:43:28.006Z,1.10
2023-01-01T15:48:36.069Z,0.88
2023-01-01T15:53:50.450Z,1.02
2023-01-01T15:59:03.737Z,0.60
2023-01-01T16:04:28.802Z,0.98
2023-01-01T16:09:30.919Z,0.68
2023-01-01T16:14:32.470Z,0.88
2023-01-01T16:19:34.994Z,1.70
2023-01-01T16:24:36.550Z,1.73
2023-01-01T16:29:38.398Z,1.25
2023-01-01T16:34:41.006Z,1.05
2023-01-01T16:39:42.623Z,1.73
2023-01-01T16:44:44.338Z,1.20
2023-01-01T16:49:46.263Z,1.02
2023-01-01T16:54:47.848Z,1.17
2023-01-01T16:59:49.367Z,0.88
2023-01-01T17:04:50.902Z,1.23
2023-01-01T17:09:52.361Z,1.05
2023-01-01T17:14:54.068Z,0.90
2023-01-01T17:19:55.585Z,1.15
2023-01-01T17:24:57.137Z,1.40
2023-01-01T17:29:58.686Z,1.30
2023-01-01T17:35:03.263Z,1.15
2023-01-01T17:40:05.236Z,0.93
2023-01-01T17:45:07.697Z,1.20
2023-01-01T17:50:09.449Z,1.02
2023-01-01T17:55:10.900Z,1.17
2023-01-01T18:00:12.875Z,1.00
2023-01-01T18:05:14.635Z,1.25
2023-01-01T18:10:16.226Z,1.40
2023-01-01T18:15:17.684Z,0.82
2023-01-01T18:20:19.446Z,0.68
2023-01-01T18:25:20.947Z,1.00
2023-01-01T18:30:23.115Z,0.65
2023-01-01T18:35:24.803Z,0.70
2023-01-01T18:40:30.739Z,0.80
2023-01-01T18:45:34.454Z,0.85
2023-01-01T18:50:36.056Z,0.93
2023-01-01T18:55:37.509Z,1.10
2023-01-01T19:00:38.998Z,0.90
2023-01-01T19:05:40.721Z,0.60
2023-01-01T19:50:50.125Z,0.55
2023-01-01T19:55:51.702Z,1.13
2023-01-01T20:00:53.288Z,0.38
2023-01-01T20:05:54.829Z,1.42
2023-01-01T20:10:56.632Z,1.33
2023-01-01T20:15:58.244Z,0.80
2023-01-01T20:20:59.836Z,0.90
2023-01-01T20:26:01.495Z,0.50
2023-01-01T20:31:02.962Z,0.82
2023-01-01T20:36:04.769Z,1.02
2023-01-01T20:41:06.345Z,1.70
2023-01-01T20:46:07.908Z,1.10
2023-01-01T20:51:09.514Z,1.23
2023-01-01T20:56:11.003Z,0.70
2023-01-01T21:01:12.928Z,0.90
2023-01-01T21:06:20.021Z,1.10
2023-01-01T21:11:25.471Z,1.42
2023-01-01T21:16:35.854Z,1.48
2023-01-01T21:21:54.771Z,1.45
2023-01-01T21:27:10.741Z,0.40
2023-01-01T21:32:33.287Z,0.63
2023-01-01T21:37:41.759Z,0.93
2023-01-01T21:42:43.260Z,1.00
2023-01-01T21:47:45.135Z,1.33
2023-01-01T21:52:47.720Z,0.57
2023-01-01T21:57:49.523Z,0.95
2023-01-01T22:02:51.183Z,1.45
2023-01-01T22:08:00.017Z,0.77
2023-01-01T22:13:02.055Z,0.30
2023-01-01T22:18:09.793Z,1.27
2023-01-01T22:23:27.556Z,0.63
2023-01-01T22:28:42.416Z,0.82
2023-01-01T22:33:46.537Z,0.90
2023-01-01T22:38:48.237Z,0.82
2023-01-01T22:43:58.072Z,1.00
2023-01-01T22:49:02.623Z,0.70
2023-01-01T22:54:04.600Z,0.32
2023-01-01T22:59:06.191Z,1.15
2023-01-01T23:04:07.675Z,0.88
2023-01-01T23:09:09.347Z,0.50
2023-01-01T23:14:11.035Z,0.40
2023-01-01T23:19:12.523Z,0.77
2023-01-01T23:24:17.042Z,0.68
2023-01-01T23:29:20.205Z,0.75
2023-01-01T23:34:21.856Z,0.73
2023-01-01T23:39:23.361Z,0.47
2023-01-01T23:44:24.897Z,0.50
2023-01-01T23:49:27.471Z,0.40
2023-01-01T23:54:29.604Z,0.95
2023-01-01T23:59:32.271Z,1.05
